Time;durP1;ratioP1;P1;durP2;ratioP2;P2;SDS_P1;SDS_P2;PMS_P1;PMS_P2;Temp;Humidity;BMP_temperature;BMP_pressure;BME280_temperature;BME280_humidity;BME280_pressure;Samples;Min_cycle;Max_cycle;Signal;HPM_P1;HPM_P2
2022/12/16 00:01:47;;;;;;;134.27;21.27;;;;;;;;;;5019957;28;20032;-79
2022/12/16 00:04:13;;;;;;;112.03;20.45;;;;;;;;;;5037232;28;20059;-79
2022/12/16 00:06:38;;;;;;;132.55;24.10;;;;;;;;;;5037781;28;20186;-79
2022/12/16 00:09:04;;;;;;;111.63;20.30;;;;;;;;;;5037483;28;20029;-79
2022/12/16 00:11:31;;;;;;;127.63;21.48;;;;;;;;;;5037592;28;20063;-79
2022/12/16 00:13:56;;;;;;;116.72;18.77;;;;;;;;;;5038291;28;20060;-78
2022/12/16 00:16:22;;;;;;;107.07;16.75;;;;;;;;;;5036595;28;20442;-79
2022/12/16 00:18:47;;;;;;;87.32;17.98;;;;;;;;;;5020077;28;20099;-78
2022/12/16 00:21:13;;;;;;;113.43;18.88;;;;;;;;;;5046814;28;20053;-79
2022/12/16 00:23:40;;;;;;;105.35;19.85;;;;;;;;;;5056990;28;20036;-80
2022/12/16 00:26:06;;;;;;;150.65;19.23;;;;;;;;;;5021251;28;20025;-80
2022/12/16 00:28:31;;;;;;;113.63;17.88;;;;;;;;;;5038320;28;20147;-80
2022/12/16 00:30:57;;;;;;;147.80;18.52;;;;;;;;;;5019988;28;20036;-79
2022/12/16 00:33:24;;;;;;;159.85;18.48;;;;;;;;;;5037123;28;20403;-80
2022/12/16 00:35:49;;;;;;;134.75;21.10;;;;;;;;;;5003306;28;20034;-81
2022/12/16 00:38:15;;;;;;;182.05;22.88;;;;;;;;;;5019154;28;20377;-80
2022/12/16 00:40:40;;;;;;;158.68;22.20;;;;;;;;;;5019117;28;20079;-79
2022/12/16 00:43:06;;;;;;;135.98;21.75;;;;;;;;;;5018638;28;20042;-79
2022/12/16 00:45:31;;;;;;;119.55;22.80;;;;;;;;;;5036823;28;20326;-80
2022/12/16 00:47:57;;;;;;;113.20;21.73;;;;;;;;;;5019031;28;20072;-80
2022/12/16 00:50:23;;;;;;;99.45;18.67;;;;;;;;;;5036837;28;20033;-80
2022/12/16 00:52:48;;;;;;;120.95;19.38;;;;;;;;;;5036012;28;20116;-81
2022/12/16 00:55:14;;;;;;;124.70;19.95;;;;;;;;;;5018845;28;20072;-80
2022/12/16 00:57:40;;;;;;;129.90;19.45;;;;;;;;;;5036686;28;20037;-80
2022/12/16 01:00:11;;;;;;;147.27;22.23;;;;;;;;;;5019047;28;20029;-79
2022/12/16 01:02:38;;;;;;;116.93;22.55;;;;;;;;;;5036007;28;20036;-80
2022/12/16 01:05:04;;;;;;;118.45;23.00;;;;;;;;;;5036420;28;20374;-80
2022/12/16 01:07:29;;;;;;;108.45;21.25;;;;;;;;;;5035229;28;20037;-80
2022/12/16 01:09:55;;;;;;;105.55;21.48;;;;;;;;;;5018463;28;20037;-80
2022/12/16 01:12:20;;;;;;;115.65;21.13;;;;;;;;;;5018508;28;20029;-81
2022/12/16 01:14:45;;;;;;;121.60;19.92;;;;;;;;;;5002113;28;20038;-81
2022/12/16 01:17:11;;;;;;;107.10;18.95;;;;;;;;;;5001894;28;20032;-80
2022/12/16 01:19:37;;;;;;;91.30;19.25;;;;;;;;;;5018513;28;20048;-81
2022/12/16 01:22:03;;;;;;;99.05;19.95;;;;;;;;;;5018801;28;20087;-80
2022/12/16 01:24:28;;;;;;;106.78;20.95;;;;;;;;;;5036084;28;20366;-80
2022/12/16 01:26:54;;;;;;;88.22;20.67;;;;;;;;;;5018436;28;20118;-81
2022/12/16 01:29:20;;;;;;;90.93;19.23;;;;;;;;;;5035979;28;20025;-79
2022/12/16 01:31:45;;;;;;;104.40;21.20;;;;;;;;;;5017558;28;20033;-80
2022/12/16 01:34:10;;;;;;;84.22;20.45;;;;;;;;;;5018274;28;20041;-80
2022/12/16 01:36:36;;;;;;;102.10;21.88;;;;;;;;;;5035663;28;20029;-80
2022/12/16 01:39:01;;;;;;;86.18;23.90;;;;;;;;;;5034601;28;20044;-80
2022/12/16 01:41:27;;;;;;;106.43;25.25;;;;;;;;;;5018059;28;20036;-80
2022/12/16 01:44:16;;;;;;;98.05;25.52;;;;;;;;;;5035650;28;20050;-81
2022/12/16 01:46:43;;;;;;;100.10;26.70;;;;;;;;;;5002393;28;20041;-81
2022/12/16 01:49:29;;;;;;;99.38;26.02;;;;;;;;;;5018076;28;20438;-79
2022/12/16 01:51:56;;;;;;;98.95;24.80;;;;;;;;;;5017621;28;20033;-81
2022/12/16 01:54:24;;;;;;;79.72;24.08;;;;;;;;;;5001439;28;20044;-79
2022/12/16 01:57:01;;;;;;;87.72;25.08;;;;;;;;;;5001795;28;20055;-80
2022/12/16 01:59:28;;;;;;;88.32;24.90;;;;;;;;;;4985166;28;20029;-80
2022/12/16 02:01:53;;;;;;;89.88;26.00;;;;;;;;;;4985293;28;20164;-81
2022/12/16 02:04:19;;;;;;;74.90;25.15;;;;;;;;;;5016774;28;20470;-80
2022/12/16 02:06:44;;;;;;;74.85;25.98;;;;;;;;;;5035177;28;20045;-80
2022/12/16 02:09:10;;;;;;;87.22;27.08;;;;;;;;;;5035015;28;20138;-80
2022/12/16 02:12:06;;;;;;;83.18;29.20;;;;;;;;;;5001290;28;20128;-80
2022/12/16 02:14:50;;;;;;;87.72;30.08;;;;;;;;;;5034873;28;20043;-79
2022/12/16 02:17:22;;;;;;;77.50;30.10;;;;;;;;;;5035142;28;20037;-80
2022/12/16 02:20:06;;;;;;;86.57;32.08;;;;;;;;;;5017227;28;20373;-80
2022/12/16 02:22:57;;;;;;;94.78;33.75;;;;;;;;;;5034746;28;20389;-79
2022/12/16 02:25:49;;;;;;;98.78;38.00;;;;;;;;;;4980182;28;20037;-81
2022/12/16 02:28:36;;;;;;;85.97;34.53;;;;;;;;;;5019192;28;20457;-80
2022/12/16 02:31:09;;;;;;;78.30;29.30;;;;;;;;;;5034981;28;20065;-80
2022/12/16 02:33:50;;;;;;;76.25;28.30;;;;;;;;;;5017214;28;20447;-78
2022/12/16 02:36:33;;;;;;;;;;;;;;;;;;5035235;28;20393;-80
2022/12/16 02:39:03;;;;;;;54.30;22.10;;;;;;;;;;5034681;28;20011;-80
2022/12/16 02:42:00;;;;;;;59.05;22.75;;;;;;;;;;5000969;28;20037;-80
2022/12/16 02:44:51;;;;;;;52.58;20.45;;;;;;;;;;4992673;28;20029;-80
2022/12/16 02:47:16;;;;;;;58.42;21.15;;;;;;;;;;5016581;28;20029;-79
2022/12/16 02:49:49;;;;;;;51.45;20.85;;;;;;;;;;5034835;28;20132;-79
2022/12/16 02:52:16;;;;;;;54.50;21.80;;;;;;;;;;5017047;28;20033;-79
2022/12/16 02:54:42;;;;;;;54.13;22.23;;;;;;;;;;5000457;28;20072;-79
2022/12/16 02:57:41;;;;;;;57.50;23.98;;;;;;;;;;5016655;28;20065;-80
2022/12/16 03:00:11;;;;;;;73.50;28.92;;;;;;;;;;4967414;28;20039;-78
2022/12/16 03:03:00;;;;;;;70.07;27.97;;;;;;;;;;5016877;28;20102;-81
2022/12/16 03:05:31;;;;;;;60.25;24.40;;;;;;;;;;5016931;28;20041;-80
2022/12/16 03:07:59;;;;;;;67.22;25.17;;;;;;;;;;4984201;28;20385;-81
2022/12/16 03:10:30;;;;;;;68.68;24.52;;;;;;;;;;5016738;28;20037;-79
2022/12/16 03:12:57;;;;;;;66.93;25.27;;;;;;;;;;5000212;28;20455;-80
2022/12/16 03:15:24;;;;;;;78.55;26.75;;;;;;;;;;5000330;28;20361;-81
2022/12/16 03:17:49;;;;;;;81.60;27.15;;;;;;;;;;4984035;28;20056;-81
2022/12/16 03:20:25;;;;;;;87.60;29.30;;;;;;;;;;5032954;28;20108;-81
2022/12/16 03:22:51;;;;;;;83.75;28.38;;;;;;;;;;5001397;28;20461;-79
2022/12/16 03:25:17;;;;;;;98.18;29.60;;;;;;;;;;5016370;28;20026;-80
2022/12/16 03:27:48;;;;;;;84.50;27.42;;;;;;;;;;4999763;28;20021;-80
2022/12/16 03:30:21;;;;;;;78.65;26.88;;;;;;;;;;5034118;28;20068;-80
2022/12/16 03:33:01;;;;;;;79.57;25.92;;;;;;;;;;5016820;28;20033;-80
2022/12/16 03:35:37;;;;;;;84.53;23.85;;;;;;;;;;5001451;28;20025;-80
2022/12/16 03:38:04;;;;;;;87.70;24.17;;;;;;;;;;5016406;28;20034;-81
2022/12/16 03:40:29;;;;;;;93.72;25.33;;;;;;;;;;5032861;28;20017;-80
2022/12/16 03:42:54;;;;;;;96.13;26.73;;;;;;;;;;5016177;28;20449;-80
2022/12/16 03:45:23;;;;;;;99.78;24.70;;;;;;;;;;4999837;28;20033;-80
2022/12/16 03:47:49;;;;;;;85.25;24.33;;;;;;;;;;5049358;28;20458;-80
2022/12/16 03:50:16;;;;;;;85.25;24.42;;;;;;;;;;5000063;28;20048;-80
2022/12/16 03:52:42;;;;;;;86.22;22.40;;;;;;;;;;5016135;28;20021;-80
2022/12/16 03:55:07;;;;;;;84.00;22.60;;;;;;;;;;5016203;28;20032;-80
2022/12/16 03:57:33;;;;;;;105.68;24.33;;;;;;;;;;5033592;28;20041;-80
2022/12/16 03:59:58;;;;;;;121.50;25.35;;;;;;;;;;5016393;28;20331;-79
2022/12/16 04:02:23;;;;;;;93.97;25.25;;;;;;;;;;5033701;28;21115;-81
2022/12/16 04:04:49;;;;;;;134.38;26.45;;;;;;;;;;5033862;28;20025;-82
2022/12/16 04:07:20;;;;;;;86.72;25.27;;;;;;;;;;4999452;28;20053;-81
2022/12/16 04:09:46;;;;;;;109.60;26.80;;;;;;;;;;5017370;28;20099;-79
2022/12/16 04:26:03;;;;;;;144.38;24.33;;;;;;;;;;5004337;28;20032;-79
2022/12/16 04:28:29;;;;;;;124.00;22.65;;;;;;;;;;5018079;28;20033;-79
2022/12/16 04:30:54;;;;;;;104.28;23.08;;;;;;;;;;5019670;28;20354;-79
